Volcano, HI

11:49 AM HST on June 02, 2015 (GMT -1000)
Kona International At Keahole | | Change Station
CLOSE
Current Station
Airport
Location: Keahole Point,
Elevation: 43 ft
Nearby Weather Stations
Active Advisory: High Surf Advisory Active Notice: Record Report

Elev 43 ft 19.74 °N, 156.05 °W | Updated 56 minutes ago

Scattered Clouds
Scattered Clouds
83 °F
Feels Like 87 °F
N
8
Wind Variable Wind from SW

Today
High -- | Low -- °F
--% Chance of Precip.
Yesterday
High -- | Low -- °F
Precip. -- in
5:42 AM 6:56 PM
Full, 100% visible
Pressure 30.01 in
Visibility 10.0 miles
Clouds Scattered Clouds 4500 ft
Heat Index 87 °F
Dew Point 70 °F
Humidity 65%
Rainfall 0.00 in
Snow Depth Not available.
UV 9 out of 12
Pollen Not available.
Air Quality Not available.
Flu Activity Local Activity
METAR PHKO 022053Z 23007KT 10SM SCT045 28/21 A3001 RMK AO2 SLP162 T02830211 50001

More Conditions Fewer Conditions

Pressure 30.01 in
Visibility 10.0 miles
Clouds Scattered Clouds 4500 ft
Heat Index 87 °F
Dew Point 70 °F
Humidity 65%
Rainfall 0.00 in
Snow Depth Not available.
UV 9 out of 12
Pollen Not available.
Air Quality Not available.
Flu Activity Local Activity
METAR PHKO 022053Z 23007KT 10SM SCT045 28/21 A3001 RMK AO2 SLP162 T02830211 50001

More Conditions Fewer Conditions

10-Day Weather Forecast

×

Almanac

Astronomy

Jun. 02, 2015 Rise Set
Actual Time
Civil Twilight
Nautical Twilight
Astronomical Twilight
Moon
Length of Visible Light
Length of Day
Tomorrow will be .
, % of the Moon is Illuminated

Today's Extremes

State Highs State Lows

Community

WunderPhotos

Upload Photos

1,826,032 photos uploaded!

WunderBlogs® & News

Nearby

Air Quality

  Air Quality AQ Index Pollutant
Not available.

Snow Depth

Station Depth Elevation

Earthquake Activity

City Distance Mag. Time & Date
Minimum magnitude displayed is 2.5.

Coastal Water Temperatures

Place Temperature

Stations

Nearby Weather Stations

Station Location Temp. Windchill Dew Point Humidity Wind Precip. Elev Updated Type
                   
High Surf Advisory
Statement as of 3:33 AM HST on June 02, 2015

... High surf advisory remains in effect until 6 PM HST this
evening...

A high surf advisory remains in effect until 6 PM HST this
evening.

* Surf... 6 to 10 feet along south facing shores.

* Timing... slowly diminishing through this afternoon.

* Impacts... moderate... expect strong breaking waves... shore
break... and strong longshore and rip currents making swimming
difficult and dangerous.

Precautionary/preparedness actions...

Know your limits and seek ocean recreation areas best suited for
your abilities. Beachgoers... swimmers... and surfers should heed
all advice given by ocean safety officials and exercise caution.
Boaters should expect surfers and body boarders utilizing Harbor
channels to access surfing areas.